Time;durP1;ratioP1;P1;durP2;ratioP2;P2;SDS_P1;SDS_P2;PMS_P1;PMS_P2;Temp;Humidity;BMP_temperature;BMP_pressure;BME280_temperature;BME280_humidity;BME280_pressure;Samples;Min_cycle;Max_cycle;Signal;HPM_P1;HPM_P2
2022/07/09 00:00:06;;;;;;;4.27;2.30;;;;;;;;;;510306;29;1253;-93
2022/07/09 00:00:21;;;;;;;4.32;2.25;;;;;;;;;;510079;29;880;-93
2022/07/09 00:00:37;;;;;;;4.40;2.30;;;;;;;;;;510156;29;1269;-93
2022/07/09 00:00:52;;;;;;;3.40;2.20;;;;;;;;;;508300;29;1315;-93
2022/07/09 00:01:07;;;;;;;2.97;2.10;;;;;;;;;;506259;29;1226;-93
2022/07/09 00:01:23;;;;;;;3.47;2.27;;;;;;;;;;508388;29;1214;-92
2022/07/09 00:01:38;;;;;;;3.35;2.25;;;;;;;;;;506130;29;1125;-92
2022/07/09 00:01:55;;;;;;;3.10;2.00;;;;;;;;;;508113;29;1309;-93
2022/07/09 00:02:10;;;;;;;3.63;1.98;;;;;;;;;;508203;29;1391;-93
2022/07/09 00:02:25;;;;;;;4.33;2.10;;;;;;;;;;508145;29;968;-93
2022/07/09 00:02:41;;;;;;;3.97;2.03;;;;;;;;;;506268;29;1307;-93
2022/07/09 00:02:56;;;;;;;3.47;2.15;;;;;;;;;;508280;29;1364;-94
2022/07/09 00:03:12;;;;;;;4.27;2.40;;;;;;;;;;506450;29;1210;-94
2022/07/09 00:03:27;;;;;;;3.97;2.25;;;;;;;;;;508265;29;1243;-94
2022/07/09 00:03:43;;;;;;;3.33;2.10;;;;;;;;;;506336;29;1407;-94
2022/07/09 00:03:58;;;;;;;3.28;2.20;;;;;;;;;;506474;29;1258;-93
2022/07/09 00:04:13;;;;;;;4.37;2.13;;;;;;;;;;506638;29;833;-93
2022/07/09 00:04:29;;;;;;;4.97;2.20;;;;;;;;;;506570;29;877;-93
2022/07/09 00:04:44;;;;;;;4.38;2.40;;;;;;;;;;506343;29;1225;-93
2022/07/09 00:05:00;;;;;;;4.00;2.20;;;;;;;;;;504418;29;1202;-94
2022/07/09 00:05:17;;;;;;;3.72;2.05;;;;;;;;;;504452;29;1321;-93
2022/07/09 00:05:32;;;;;;;3.47;2.10;;;;;;;;;;504858;29;1280;-93
2022/07/09 00:05:47;;;;;;;4.10;2.17;;;;;;;;;;506131;29;1284;-92
2022/07/09 00:06:03;;;;;;;4.80;2.20;;;;;;;;;;504538;29;913;-93
2022/07/09 00:06:19;;;;;;;4.93;2.28;;;;;;;;;;504569;29;898;-93
2022/07/09 00:06:34;;;;;;;4.93;2.20;;;;;;;;;;505049;29;1238;-93
2022/07/09 00:06:50;;;;;;;4.43;2.27;;;;;;;;;;505066;29;1216;-93
2022/07/09 00:07:05;;;;;;;3.80;2.38;;;;;;;;;;506887;29;1023;-92
2022/07/09 00:07:20;;;;;;;4.07;2.30;;;;;;;;;;508405;29;1273;-93
2022/07/09 00:07:36;;;;;;;3.77;2.10;;;;;;;;;;510146;29;829;-93
2022/07/09 00:07:51;;;;;;;4.30;2.15;;;;;;;;;;508298;29;1292;-93
2022/07/09 00:08:07;;;;;;;5.00;2.10;;;;;;;;;;507940;29;1187;-93
2022/07/09 00:08:22;;;;;;;4.07;2.30;;;;;;;;;;506298;29;1351;-93
2022/07/09 00:08:38;;;;;;;3.83;2.27;;;;;;;;;;506436;29;1161;-93
2022/07/09 00:08:53;;;;;;;4.28;2.17;;;;;;;;;;508022;29;1278;-93
2022/07/09 00:09:08;;;;;;;3.63;2.30;;;;;;;;;;506299;29;1161;-93
2022/07/09 00:09:24;;;;;;;3.37;2.37;;;;;;;;;;506347;29;1368;-93
2022/07/09 00:09:39;;;;;;;3.63;2.30;;;;;;;;;;504420;29;1411;-92
2022/07/09 00:09:54;;;;;;;4.23;2.20;;;;;;;;;;506346;29;1207;-93
2022/07/09 00:10:11;;;;;;;4.20;2.10;;;;;;;;;;504450;29;1213;-94
2022/07/09 00:10:26;;;;;;;3.25;2.03;;;;;;;;;;504707;29;1493;-94
2022/07/09 00:10:42;;;;;;;2.97;2.03;;;;;;;;;;506115;29;1316;-93
2022/07/09 00:10:57;;;;;;;2.78;2.05;;;;;;;;;;510593;29;1332;-93
2022/07/09 00:11:12;;;;;;;2.87;2.00;;;;;;;;;;510209;29;1336;-93
2022/07/09 00:11:28;;;;;;;3.43;2.10;;;;;;;;;;510897;29;786;-93
2022/07/09 00:11:43;;;;;;;3.45;2.17;;;;;;;;;;512412;29;806;-93
2022/07/09 00:11:59;;;;;;;3.60;2.10;;;;;;;;;;512178;29;1630;-93
2022/07/09 00:12:14;;;;;;;4.43;2.20;;;;;;;;;;507920;29;1405;-93
2022/07/09 00:12:29;;;;;;;3.78;2.25;;;;;;;;;;510144;29;1746;-93
2022/07/09 00:12:45;;;;;;;3.40;2.20;;;;;;;;;;510004;29;1317;-93
2022/07/09 00:13:00;;;;;;;4.10;2.20;;;;;;;;;;510625;29;1333;-94
2022/07/09 00:13:16;;;;;;;3.43;2.20;;;;;;;;;;514255;28;1210;-93
2022/07/09 00:13:31;;;;;;;3.13;2.10;;;;;;;;;;514548;28;1190;-94
2022/07/09 00:13:47;;;;;;;4.15;2.10;;;;;;;;;;514453;28;1288;-93
2022/07/09 00:14:03;;;;;;;3.83;2.20;;;;;;;;;;514268;28;1280;-93
2022/07/09 00:14:19;;;;;;;3.00;2.10;;;;;;;;;;510444;29;1365;-93
2022/07/09 00:14:35;;;;;;;2.53;2.10;;;;;;;;;;510112;29;1227;-93
2022/07/09 00:14:50;;;;;;;3.65;2.10;;;;;;;;;;506371;29;1323;-93
2022/07/09 00:15:06;;;;;;;4.33;2.30;;;;;;;;;;506583;29;802;-93
2022/07/09 00:15:22;;;;;;;3.30;2.20;;;;;;;;;;508384;29;1476;-94
2022/07/09 00:15:37;;;;;;;3.88;2.00;;;;;;;;;;506220;29;1899;-93
2022/07/09 00:15:52;;;;;;;4.40;2.10;;;;;;;;;;506545;29;1253;-93
2022/07/09 00:16:08;;;;;;;4.20;2.33;;;;;;;;;;506731;29;1260;-93
2022/07/09 00:16:23;;;;;;;4.80;2.40;;;;;;;;;;506358;29;1305;-93
2022/07/09 00:16:39;;;;;;;4.23;2.30;;;;;;;;;;506412;29;786;-93
2022/07/09 00:16:54;;;;;;;3.63;2.30;;;;;;;;;;506689;29;1361;-94
2022/07/09 00:17:10;;;;;;;4.68;2.40;;;;;;;;;;506243;29;1333;-93
2022/07/09 00:17:29;;;;;;;4.70;2.40;;;;;;;;;;506429;29;1008;-93
2022/07/09 00:17:45;;;;;;;3.58;2.10;;;;;;;;;;507015;29;1293;-93
2022/07/09 00:18:00;;;;;;;4.65;2.25;;;;;;;;;;508094;29;1237;-93
2022/07/09 00:18:16;;;;;;;3.90;2.20;;;;;;;;;;508996;29;1312;-93
2022/07/09 00:18:32;;;;;;;3.47;2.20;;;;;;;;;;510070;29;1310;-92
2022/07/09 00:18:47;;;;;;;3.90;2.30;;;;;;;;;;510236;29;1186;-93
2022/07/09 00:19:03;;;;;;;5.43;2.30;;;;;;;;;;510095;29;1216;-93
2022/07/09 00:19:18;;;;;;;5.80;2.40;;;;;;;;;;508312;29;1504;-93
2022/07/09 00:19:34;;;;;;;4.33;2.37;;;;;;;;;;504341;29;1397;-93
2022/07/09 00:19:49;;;;;;;4.13;2.38;;;;;;;;;;506152;29;1224;-91
2022/07/09 00:20:05;;;;;;;4.10;2.47;;;;;;;;;;508093;29;1215;-89
2022/07/09 00:20:20;;;;;;;4.00;2.30;;;;;;;;;;508311;29;1313;-90
2022/07/09 00:20:36;;;;;;;3.17;2.10;;;;;;;;;;511842;29;1266;-91
2022/07/09 00:20:54;;;;;;;2.83;2.10;;;;;;;;;;509763;29;1308;-91
2022/07/09 00:21:10;;;;;;;3.67;2.20;;;;;;;;;;509930;29;1256;-91
2022/07/09 00:21:25;;;;;;;3.93;2.27;;;;;;;;;;510378;29;1337;-90
2022/07/09 00:21:40;;;;;;;4.00;2.25;;;;;;;;;;506210;29;1223;-91
2022/07/09 00:21:56;;;;;;;3.57;2.30;;;;;;;;;;506350;29;1277;-91
2022/07/09 00:22:11;;;;;;;4.00;2.40;;;;;;;;;;508190;29;1349;-91
2022/07/09 00:22:27;;;;;;;4.83;2.40;;;;;;;;;;506628;29;1306;-94
2022/07/09 00:22:43;;;;;;;5.25;2.40;;;;;;;;;;508360;29;1202;-94
2022/07/09 00:22:58;;;;;;;4.32;2.20;;;;;;;;;;508140;29;1483;-92
2022/07/09 00:23:14;;;;;;;3.13;2.00;;;;;;;;;;510284;29;1207;-93
2022/07/09 00:23:29;;;;;;;3.13;2.15;;;;;;;;;;510341;29;1442;-94
2022/07/09 00:23:45;;;;;;;4.13;2.40;;;;;;;;;;510130;29;1207;-94
2022/07/09 00:24:00;;;;;;;4.07;2.33;;;;;;;;;;508703;29;1215;-93
2022/07/09 00:24:15;;;;;;;3.60;2.30;;;;;;;;;;508335;29;1335;-93
2022/07/09 00:24:31;;;;;;;3.73;2.30;;;;;;;;;;510355;29;1294;-93
2022/07/09 00:24:47;;;;;;;3.17;2.17;;;;;;;;;;506414;29;1321;-92
2022/07/09 00:25:03;;;;;;;3.50;2.22;;;;;;;;;;508351;29;1355;-93
2022/07/09 00:25:18;;;;;;;3.33;2.28;;;;;;;;;;506206;29;1393;-93
2022/07/09 00:25:34;;;;;;;3.90;2.20;;;;;;;;;;506129;29;1226;-93
2022/07/09 00:25:49;;;;;;;4.38;2.30;;;;;;;;;;506224;29;1212;-94
2022/07/09 00:26:05;;;;;;;3.13;2.20;;;;;;;;;;504286;29;1228;-93
2022/07/09 00:26:20;;;;;;;3.72;2.17;;;;;;;;;;508311;29;1184;-94
2022/07/09 00:26:36;;;;;;;3.93;2.33;;;;;;;;;;508475;29;1221;-94
2022/07/09 00:26:51;;;;;;;3.60;2.40;;;;;;;;;;506419;29;1271;-94
2022/07/09 00:27:06;;;;;;;4.38;2.50;;;;;;;;;;508568;29;1313;-93
2022/07/09 00:27:22;;;;;;;3.90;2.40;;;;;;;;;;511860;29;1526;-94
2022/07/09 00:27:37;;;;;;;3.07;2.30;;;;;;;;;;508728;29;1527;-93
2022/07/09 00:27:53;;;;;;;3.88;2.30;;;;;;;;;;510269;28;1340;-93
2022/07/09 00:28:08;;;;;;;4.33;2.20;;;;;;;;;;508213;29;1308;-93
2022/07/09 00:28:23;;;;;;;3.75;2.20;;;;;;;;;;508193;29;1195;-93
2022/07/09 00:28:39;;;;;;;3.90;2.43;;;;;;;;;;508297;29;1181;-93
2022/07/09 00:28:54;;;;;;;4.03;2.40;;;;;;;;;;510135;29;1243;-93
2022/07/09 00:29:10;;;;;;;3.63;2.13;;;;;;;;;;508338;29;1344;-94
2022/07/09 00:29:25;;;;;;;2.90;2.00;;;;;;;;;;510934;29;1419;-94
2022/07/09 00:29:41;;;;;;;2.80;2.10;;;;;;;;;;506323;29;1367;-93
2022/07/09 00:29:57;;;;;;;3.40;2.20;;;;;;;;;;508355;29;1331;-94
2022/07/09 00:30:12;;;;;;;4.47;2.20;;;;;;;;;;506322;29;1297;-94
2022/07/09 00:30:28;;;;;;;4.67;2.30;;;;;;;;;;506439;29;832;-94
2022/07/09 00:30:43;;;;;;;4.03;2.20;;;;;;;;;;506368;29;1209;-93
2022/07/09 00:31:04;;;;;;;3.75;2.13;;;;;;;;;;504333;29;1210;-93
2022/07/09 00:31:20;;;;;;;3.83;2.30;;;;;;;;;;500522;29;1251;-93
2022/07/09 00:31:35;;;;;;;3.37;2.20;;;;;;;;;;502400;29;1303;-93
2022/07/09 00:31:51;;;;;;;4.47;2.20;;;;;;;;;;503163;29;1289;-93
2022/07/09 00:32:06;;;;;;;4.07;2.10;;;;;;;;;;507911;29;1283;-94
2022/07/09 00:32:22;;;;;;;3.05;2.15;;;;;;;;;;508451;29;1266;-93
2022/07/09 00:32:37;;;;;;;3.10;2.20;;;;;;;;;;506328;29;1237;-94
2022/07/09 00:32:52;;;;;;;3.38;2.20;;;;;;;;;;504375;29;1295;-94
2022/07/09 00:33:08;;;;;;;3.47;2.30;;;;;;;;;;506452;29;1204;-94
2022/07/09 00:33:23;;;;;;;3.45;2.33;;;;;;;;;;506337;29;1321;-94
2022/07/09 00:33:39;;;;;;;3.00;2.20;;;;;;;;;;504433;29;1267;-94
2022/07/09 00:33:54;;;;;;;2.87;2.10;;;;;;;;;;504515;29;1314;-94
2022/07/09 00:34:09;;;;;;;3.42;2.22;;;;;;;;;;502497;29;1219;-93
2022/07/09 00:34:25;;;;;;;3.30;2.20;;;;;;;;;;504402;29;1171;-94
2022/07/09 00:34:40;;;;;;;3.30;2.17;;;;;;;;;;506404;29;1235;-93
2022/07/09 00:34:56;;;;;;;3.27;2.17;;;;;;;;;;504617;29;1248;-94
2022/07/09 00:35:12;;;;;;;3.27;2.10;;;;;;;;;;506102;29;1169;-93
2022/07/09 00:35:27;;;;;;;4.13;2.35;;;;;;;;;;506280;29;1383;-91
2022/07/09 00:35:43;;;;;;;4.10;2.37;;;;;;;;;;508202;29;1919;-91
2022/07/09 00:35:58;;;;;;;4.03;2.30;;;;;;;;;;506368;29;1186;-91
2022/07/09 00:36:14;;;;;;;3.57;2.30;;;;;;;;;;504309;29;1311;-90
2022/07/09 00:36:29;;;;;;;3.70;2.20;;;;;;;;;;508068;29;1210;-94
2022/07/09 00:36:45;;;;;;;4.15;2.22;;;;;;;;;;507998;29;1292;-93
2022/07/09 00:37:01;;;;;;;5.03;2.37;;;;;;;;;;508235;29;1194;-91
2022/07/09 00:37:17;;;;;;;4.93;2.30;;;;;;;;;;511976;29;1265;-92
2022/07/09 00:37:32;;;;;;;3.90;2.40;;;;;;;;;;510238;29;1297;-91
2022/07/09 00:37:47;;;;;;;4.38;2.50;;;;;;;;;;507951;29;1222;-91
2022/07/09 00:38:03;;;;;;;4.30;2.30;;;;;;;;;;506167;29;1234;-92
2022/07/09 00:38:19;;;;;;;3.37;2.20;;;;;;;;;;504330;29;1266;-91
2022/07/09 00:38:34;;;;;;;3.30;2.10;;;;;;;;;;503514;29;1239;-92
2022/07/09 00:38:50;;;;;;;4.10;2.23;;;;;;;;;;504483;29;1292;-91
2022/07/09 00:39:05;;;;;;;5.40;2.40;;;;;;;;;;504476;29;1256;-92
2022/07/09 00:39:21;;;;;;;4.83;2.50;;;;;;;;;;506020;29;1419;-91
2022/07/09 00:39:36;;;;;;;3.57;2.47;;;;;;;;;;504368;29;1214;-91
2022/07/09 00:39:51;;;;;;;3.75;2.30;;;;;;;;;;506182;29;1459;-91
2022/07/09 00:40:07;;;;;;;3.70;2.20;;;;;;;;;;504594;29;1308;-92
2022/07/09 00:40:22;;;;;;;3.03;2.10;;;;;;;;;;506405;29;1168;-92
2022/07/09 00:40:39;;;;;;;3.20;2.20;;;;;;;;;;508315;29;1308;-92
2022/07/09 00:40:54;;;;;;;5.15;2.50;;;;;;;;;;506192;29;1261;-91
2022/07/09 00:41:10;;;;;;;4.83;2.50;;;;;;;;;;510236;29;1268;-92
2022/07/09 00:41:26;;;;;;;3.97;2.50;;;;;;;;;;508024;29;1309;-91
2022/07/09 00:41:41;;;;;;;5.35;2.50;;;;;;;;;;506121;29;1239;-91
2022/07/09 00:42:07;;;;;;;5.63;2.40;;;;;;;;;;506257;29;1190;-90
2022/07/09 00:42:24;;;;;;;4.10;2.20;;;;;;;;;;510119;29;1447;-93
2022/07/09 00:42:40;;;;;;;3.42;2.35;;;;;;;;;;510047;29;1566;-93
2022/07/09 00:42:55;;;;;;;4.38;2.50;;;;;;;;;;509908;29;896;-93
2022/07/09 00:43:18;;;;;;;4.63;2.50;;;;;;;;;;505828;29;1357;-93
2022/07/09 00:43:33;;;;;;;4.63;2.35;;;;;;;;;;506079;29;1124;-91
2022/07/09 00:43:50;;;;;;;4.55;2.30;;;;;;;;;;505995;29;1286;-91
2022/07/09 00:44:05;;;;;;;3.55;2.20;;;;;;;;;;505986;29;1377;-91
2022/07/09 00:44:21;;;;;;;3.70;2.27;;;;;;;;;;508107;29;1174;-91
2022/07/09 00:44:37;;;;;;;4.10;2.40;;;;;;;;;;508167;29;1312;-91
2022/07/09 00:44:52;;;;;;;3.60;2.20;;;;;;;;;;507945;29;927;-91
2022/07/09 00:45:08;;;;;;;3.97;2.20;;;;;;;;;;510115;29;1269;-91
2022/07/09 00:45:23;;;;;;;4.83;2.40;;;;;;;;;;509971;29;1217;-91
2022/07/09 00:45:38;;;;;;;4.40;2.40;;;;;;;;;;508280;29;1352;-91
2022/07/09 00:45:54;;;;;;;4.03;2.27;;;;;;;;;;507901;29;1160;-92
2022/07/09 00:46:09;;;;;;;4.13;2.30;;;;;;;;;;506235;29;1381;-91
2022/07/09 00:46:24;;;;;;;4.97;2.27;;;;;;;;;;510296;29;1356;-91
2022/07/09 00:46:40;;;;;;;4.73;2.33;;;;;;;;;;510270;29;801;-91
2022/07/09 00:46:55;;;;;;;3.65;2.20;;;;;;;;;;512280;29;1345;-92
2022/07/09 00:47:11;;;;;;;3.37;2.10;;;;;;;;;;512497;29;879;-91
2022/07/09 00:47:26;;;;;;;3.37;2.20;;;;;;;;;;508227;29;1388;-91
2022/07/09 00:47:42;;;;;;;3.72;2.35;;;;;;;;;;508707;29;1346;-91
2022/07/09 00:47:58;;;;;;;3.60;2.30;;;;;;;;;;510269;29;1221;-91
2022/07/09 00:48:14;;;;;;;3.05;2.10;;;;;;;;;;509935;29;1272;-91
2022/07/09 00:48:29;;;;;;;3.50;2.30;;;;;;;;;;506473;29;1308;-91
2022/07/09 00:48:47;;;;;;;4.27;2.40;;;;;;;;;;504478;29;1209;-91
2022/07/09 00:49:06;;;;;;;4.45;2.30;;;;;;;;;;506106;29;1265;-92
2022/07/09 00:49:21;;;;;;;5.55;2.22;;;;;;;;;;505982;29;1419;-91
2022/07/09 00:49:42;;;;;;;4.97;2.33;;;;;;;;;;508076;29;1177;-91
2022/07/09 00:49:57;;;;;;;4.75;2.40;;;;;;;;;;506162;29;1250;-91
2022/07/09 00:50:13;;;;;;;4.00;2.30;;;;;;;;;;508064;29;1174;-90
2022/07/09 00:50:28;;;;;;;4.32;2.30;;;;;;;;;;510488;29;1098;-91
2022/07/09 00:50:44;;;;;;;5.00;2.37;;;;;;;;;;508869;29;1185;-91
2022/07/09 00:50:59;;;;;;;3.78;2.30;;;;;;;;;;504439;29;1377;-92
2022/07/09 00:51:19;;;;;;;4.47;2.30;;;;;;;;;;506459;29;1327;-91
2022/07/09 00:51:35;;;;;;;4.57;2.40;;;;;;;;;;508083;29;1314;-92
2022/07/09 00:51:51;;;;;;;5.30;2.63;;;;;;;;;;508294;29;892;-92
2022/07/09 00:52:09;;;;;;;5.47;2.55;;;;;;;;;;508164;29;1239;-91
2022/07/09 00:52:24;;;;;;;5.35;2.30;;;;;;;;;;508157;29;1280;-91
2022/07/09 00:52:41;;;;;;;5.27;2.20;;;;;;;;;;506005;29;1200;-91
2022/07/09 00:52:56;;;;;;;4.28;2.30;;;;;;;;;;506148;29;1308;-91
2022/07/09 00:53:17;;;;;;;3.95;2.15;;;;;;;;;;505792;29;1342;-91
2022/07/09 00:53:33;;;;;;;3.45;2.20;;;;;;;;;;504178;29;1383;-92
2022/07/09 00:53:50;;;;;;;3.58;2.22;;;;;;;;;;508104;29;1196;-92
2022/07/09 00:54:05;;;;;;;4.43;2.25;;;;;;;;;;508072;29;1369;-92
2022/07/09 00:54:21;;;;;;;4.60;2.30;;;;;;;;;;508280;29;1204;-91
2022/07/09 00:54:37;;;;;;;4.60;2.47;;;;;;;;;;510308;29;1478;-91
2022/07/09 00:54:54;;;;;;;5.15;2.70;;;;;;;;;;510313;29;1375;-92
2022/07/09 00:55:11;;;;;;;4.32;2.45;;;;;;;;;;510211;29;1024;-91
2022/07/09 00:55:27;;;;;;;4.25;2.30;;;;;;;;;;508304;29;1298;-91
2022/07/09 00:55:44;;;;;;;3.97;2.10;;;;;;;;;;509903;29;1906;-91
2022/07/09 00:56:00;;;;;;;4.65;2.20;;;;;;;;;;508034;29;1354;-92
2022/07/09 00:56:17;;;;;;;4.43;2.30;;;;;;;;;;508274;29;1265;-91
2022/07/09 00:56:33;;;;;;;4.55;2.30;;;;;;;;;;508287;29;1137;-91
2022/07/09 00:56:49;;;;;;;4.87;2.30;;;;;;;;;;508306;29;1288;-90
2022/07/09 00:57:07;;;;;;;4.53;2.38;;;;;;;;;;506317;29;1231;-91
2022/07/09 00:57:22;;;;;;;4.22;2.35;;;;;;;;;;506167;29;1249;-91
2022/07/09 00:57:39;;;;;;;4.60;2.30;;;;;;;;;;508627;29;1155;-91
2022/07/09 00:57:54;;;;;;;5.55;2.35;;;;;;;;;;508308;29;1282;-91
2022/07/09 00:58:12;;;;;;;4.63;2.25;;;;;;;;;;512246;29;1165;-91
2022/07/09 00:58:27;;;;;;;4.00;2.10;;;;;;;;;;510113;29;1467;-91
2022/07/09 00:58:44;;;;;;;4.00;2.20;;;;;;;;;;510354;29;1016;-91
2022/07/09 00:59:01;;;;;;;3.80;2.30;;;;;;;;;;508605;29;1380;-91
2022/07/09 00:59:17;;;;;;;5.22;2.30;;;;;;;;;;504396;29;1285;-91
2022/07/09 00:59:34;;;;;;;5.25;2.33;;;;;;;;;;504339;29;1282;-91
2022/07/09 00:59:51;;;;;;;5.65;2.50;;;;;;;;;;505631;29;1028;-91
2022/07/09 01:00:07;;;;;;;5.57;2.60;;;;;;;;;;507207;29;1237;-91
2022/07/09 01:00:23;;;;;;;5.07;2.33;;;;;;;;;;507747;29;917;-92
2022/07/09 01:00:38;;;;;;;4.05;2.20;;;;;;;;;;508318;29;1103;-91
2022/07/09 01:00:55;;;;;;;3.10;2.33;;;;;;;;;;509763;29;1253;-91
2022/07/09 01:01:11;;;;;;;4.60;2.40;;;;;;;;;;511006;29;1262;-91
2022/07/09 01:01:26;;;;;;;5.90;2.40;;;;;;;;;;509198;29;1332;-90
2022/07/09 01:01:42;;;;;;;4.70;2.50;;;;;;;;;;506079;29;1222;-91
2022/07/09 01:01:57;;;;;;;3.57;2.33;;;;;;;;;;506139;29;1389;-91
2022/07/09 01:02:13;;;;;;;4.68;2.40;;;;;;;;;;503927;29;1274;-91
2022/07/09 01:02:28;;;;;;;4.77;2.40;;;;;;;;;;506002;29;1286;-91
2022/07/09 01:02:45;;;;;;;4.22;2.40;;;;;;;;;;508290;29;1211;-92
2022/07/09 01:03:00;;;;;;;3.83;2.35;;;;;;;;;;508131;29;1343;-91
2022/07/09 01:03:17;;;;;;;3.17;2.22;;;;;;;;;;510170;29;1313;-91
2022/07/09 01:03:32;;;;;;;4.00;2.33;;;;;;;;;;509967;29;1561;-91
2022/07/09 01:03:48;;;;;;;4.27;2.47;;;;;;;;;;508012;29;1237;-90
2022/07/09 01:04:03;;;;;;;3.93;2.30;;;;;;;;;;506232;29;1241;-91
2022/07/09 01:04:19;;;;;;;3.65;2.30;;;;;;;;;;509950;29;1362;-91
2022/07/09 01:04:35;;;;;;;4.10;2.60;;;;;;;;;;509988;29;1491;-91
2022/07/09 01:04:50;;;;;;;4.68;2.63;;;;;;;;;;511636;29;1539;-91
2022/07/09 01:05:06;;;;;;;4.40;2.35;;;;;;;;;;510636;29;1522;-91
2022/07/09 01:05:22;;;;;;;5.32;2.33;;;;;;;;;;510323;29;1280;-91
2022/07/09 01:05:38;;;;;;;5.10;2.33;;;;;;;;;;508177;29;1191;-91
2022/07/09 01:05:55;;;;;;;3.83;2.30;;;;;;;;;;506350;29;1246;-91
2022/07/09 01:06:11;;;;;;;4.55;2.55;;;;;;;;;;506267;29;1266;-91
2022/07/09 01:06:26;;;;;;;4.60;2.50;;;;;;;;;;510112;29;1312;-91
2022/07/09 01:06:42;;;;;;;4.82;2.30;;;;;;;;;;510263;29;1281;-91
2022/07/09 01:07:01;;;;;;;4.20;2.23;;;;;;;;;;508087;29;1305;-90
2022/07/09 01:07:16;;;;;;;4.20;2.38;;;;;;;;;;507880;29;1293;-90
2022/07/09 01:07:32;;;;;;;4.32;2.30;;;;;;;;;;509169;29;1218;-91
2022/07/09 01:07:47;;;;;;;5.30;2.40;;;;;;;;;;511985;29;1217;-91
2022/07/09 01:08:04;;;;;;;5.30;2.40;;;;;;;;;;508064;29;1240;-90
2022/07/09 01:08:20;;;;;;;3.92;2.35;;;;;;;;;;508276;29;881;-91
2022/07/09 01:08:36;;;;;;;3.85;2.35;;;;;;;;;;509058;29;944;-91
2022/07/09 01:08:51;;;;;;;3.97;2.30;;;;;;;;;;510838;29;1314;-91
2022/07/09 01:09:07;;;;;;;3.92;2.40;;;;;;;;;;511409;29;1367;-91
2022/07/09 01:09:23;;;;;;;4.13;2.55;;;;;;;;;;508000;29;1313;-92
2022/07/09 01:09:38;;;;;;;4.70;2.50;;;;;;;;;;505261;29;1206;-91
2022/07/09 01:09:54;;;;;;;4.85;2.28;;;;;;;;;;506044;29;1357;-91
2022/07/09 01:10:10;;;;;;;4.30;2.30;;;;;;;;;;506055;29;1387;-91
2022/07/09 01:10:25;;;;;;;4.78;2.40;;;;;;;;;;507931;29;1330;-91
2022/07/09 01:10:41;;;;;;;5.65;2.35;;;;;;;;;;507895;29;1320;-91
2022/07/09 01:10:57;;;;;;;4.45;2.40;;;;;;;;;;508042;29;1278;-91
2022/07/09 01:11:12;;;;;;;3.93;2.40;;;;;;;;;;510012;29;1206;-91
2022/07/09 01:11:28;;;;;;;4.80;2.40;;;;;;;;;;506212;29;1308;-91
2022/07/09 01:11:43;;;;;;;4.27;2.30;;;;;;;;;;506362;29;1181;-91
2022/07/09 01:11:58;;;;;;;4.25;2.40;;;;;;;;;;507419;29;1358;-91
2022/07/09 01:12:14;;;;;;;5.90;2.63;;;;;;;;;;504365;29;1370;-91
2022/07/09 01:12:29;;;;;;;5.53;2.60;;;;;;;;;;504414;29;767;-91
2022/07/09 01:12:45;;;;;;;4.57;2.50;;;;;;;;;;506160;29;1196;-92
2022/07/09 01:13:02;;;;;;;4.47;2.40;;;;;;;;;;504382;29;1197;-91
2022/07/09 01:13:18;;;;;;;4.22;2.50;;;;;;;;;;504377;29;1156;-90
2022/07/09 01:13:33;;;;;;;4.43;2.40;;;;;;;;;;504905;29;966;-91
2022/07/09 01:13:50;;;;;;;4.85;2.20;;;;;;;;;;505744;29;1234;-91
2022/07/09 01:14:06;;;;;;;4.32;2.40;;;;;;;;;;505054;29;1277;-91
2022/07/09 01:14:22;;;;;;;4.53;2.60;;;;;;;;;;504287;29;1264;-91
2022/07/09 01:14:37;;;;;;;4.70;2.50;;;;;;;;;;503604;29;1259;-90
2022/07/09 01:14:52;;;;;;;4.93;2.47;;;;;;;;;;505945;29;1380;-91
2022/07/09 01:15:08;;;;;;;4.70;2.40;;;;;;;;;;506697;29;810;-92
2022/07/09 01:15:23;;;;;;;4.57;2.50;;;;;;;;;;508014;29;1423;-92
2022/07/09 01:15:39;;;;;;;5.27;2.60;;;;;;;;;;508184;29;1972;-91
2022/07/09 01:15:54;;;;;;;4.88;2.50;;;;;;;;;;506371;29;1207;-92
2022/07/09 01:16:15;;;;;;;3.77;2.40;;;;;;;;;;508175;29;1384;-91
2022/07/09 01:16:32;;;;;;;3.25;2.33;;;;;;;;;;508230;29;888;-91
2022/07/09 01:16:57;;;;;;;4.03;2.53;;;;;;;;;;507302;29;1337;-92
2022/07/09 01:17:18;;;;;;;4.07;2.65;;;;;;;;;;506180;29;1273;-91
2022/07/09 01:17:40;;;;;;;4.22;2.60;;;;;;;;;;506221;29;1307;-91
2022/07/09 01:17:57;;;;;;;3.67;2.40;;;;;;;;;;504241;29;1534;-91
2022/07/09 01:18:13;;;;;;;3.05;2.47;;;;;;;;;;504333;29;1284;-91
2022/07/09 01:18:28;;;;;;;4.00;2.50;;;;;;;;;;504717;29;1016;-91
2022/07/09 01:18:45;;;;;;;4.90;2.53;;;;;;;;;;504002;29;1330;-92
2022/07/09 01:19:01;;;;;;;3.92;2.47;;;;;;;;;;504322;29;1436;-91
2022/07/09 01:19:16;;;;;;;4.15;2.30;;;;;;;;;;504330;29;1326;-92
2022/07/09 01:19:33;;;;;;;5.20;2.53;;;;;;;;;;506261;29;1335;-90
2022/07/09 01:19:49;;;;;;;4.10;2.50;;;;;;;;;;508103;29;1515;-91
2022/07/09 01:20:05;;;;;;;4.77;2.50;;;;;;;;;;508053;29;1285;-90
2022/07/09 01:20:31;;;;;;;5.40;2.53;;;;;;;;;;508000;29;1271;-91
2022/07/09 01:20:47;;;;;;;4.78;2.40;;;;;;;;;;506309;29;1399;-91
2022/07/09 01:21:02;;;;;;;5.03;2.50;;;;;;;;;;506356;29;1159;-91
2022/07/09 01:21:17;;;;;;;5.78;2.70;;;;;;;;;;506450;29;1179;-91
2022/07/09 01:21:33;;;;;;;5.07;2.67;;;;;;;;;;508187;29;1464;-90
2022/07/09 01:21:48;;;;;;;3.50;2.50;;;;;;;;;;508171;29;1169;-91
2022/07/09 01:22:04;;;;;;;3.70;2.42;;;;;;;;;;508289;29;1254;-91
2022/07/09 01:22:19;;;;;;;4.20;2.60;;;;;;;;;;504199;29;1110;-91
2022/07/09 01:22:35;;;;;;;4.77;2.67;;;;;;;;;;508059;29;1300;-92
2022/07/09 01:22:51;;;;;;;4.10;2.50;;;;;;;;;;508085;29;861;-92
2022/07/09 01:23:08;;;;;;;3.55;2.40;;;;;;;;;;510072;28;1316;-91
2022/07/09 01:23:24;;;;;;;4.22;2.40;;;;;;;;;;508300;29;1393;-91
2022/07/09 01:23:39;;;;;;;5.03;2.70;;;;;;;;;;506360;29;1273;-91
2022/07/09 01:23:55;;;;;;;4.00;2.60;;;;;;;;;;506061;29;1252;-91
2022/07/09 01:24:11;;;;;;;4.05;2.50;;;;;;;;;;508025;29;1265;-92
2022/07/09 01:24:26;;;;;;;4.53;2.60;;;;;;;;;;508290;28;1323;-91
2022/07/09 01:24:42;;;;;;;4.43;2.67;;;;;;;;;;508402;29;901;-91
2022/07/09 01:25:00;;;;;;;5.18;2.80;;;;;;;;;;508349;28;1261;-92
2022/07/09 01:25:19;;;;;;;4.63;2.60;;;;;;;;;;506374;29;1360;-91
2022/07/09 01:25:40;;;;;;;3.85;2.40;;;;;;;;;;508269;29;1322;-92
2022/07/09 01:25:55;;;;;;;4.07;2.65;;;;;;;;;;508233;29;1308;-91
2022/07/09 01:26:11;;;;;;;3.45;2.63;;;;;;;;;;506565;29;1454;-92
2022/07/09 01:26:27;;;;;;;4.37;2.53;;;;;;;;;;504572;29;1203;-91
2022/07/09 01:26:43;;;;;;;5.35;2.63;;;;;;;;;;507021;29;1251;-91
2022/07/09 01:26:58;;;;;;;4.93;2.80;;;;;;;;;;508033;29;1319;-91
2022/07/09 01:27:14;;;;;;;4.47;2.80;;;;;;;;;;508174;29;1306;-91
2022/07/09 01:27:30;;;;;;;4.33;2.70;;;;;;;;;;508129;28;1339;-92
2022/07/09 01:27:46;;;;;;;4.55;2.67;;;;;;;;;;509997;28;1350;-91
2022/07/09 01:28:05;;;;;;;4.45;2.70;;;;;;;;;;508329;29;1222;-92
2022/07/09 01:28:21;;;;;;;4.55;2.65;;;;;;;;;;506333;29;1377;-92
2022/07/09 01:28:36;;;;;;;5.60;2.70;;;;;;;;;;508678;29;1216;-92
2022/07/09 01:28:51;;;;;;;5.38;2.55;;;;;;;;;;508430;29;1372;-91
2022/07/09 01:29:07;;;;;;;5.30;2.53;;;;;;;;;;506510;29;1322;-91
2022/07/09 01:29:23;;;;;;;5.37;2.70;;;;;;;;;;506229;29;1382;-91
2022/07/09 01:29:39;;;;;;;6.60;2.75;;;;;;;;;;506268;29;1444;-91
2022/07/09 01:29:54;;;;;;;6.53;2.90;;;;;;;;;;508022;29;1177;-92
2022/07/09 01:30:11;;;;;;;6.22;2.83;;;;;;;;;;506069;29;1311;-91
2022/07/09 01:30:27;;;;;;;5.90;2.60;;;;;;;;;;505960;29;1248;-91
2022/07/09 01:30:43;;;;;;;4.45;2.42;;;;;;;;;;504143;29;1193;-91
2022/07/09 01:30:59;;;;;;;3.93;2.37;;;;;;;;;;508006;29;1282;-91
2022/07/09 01:31:15;;;;;;;4.20;2.47;;;;;;;;;;508302;29;1313;-91
2022/07/09 01:31:30;;;;;;;4.30;2.57;;;;;;;;;;508386;29;1369;-91
2022/07/09 01:31:46;;;;;;;4.47;2.55;;;;;;;;;;506190;29;1259;-91
2022/07/09 01:32:01;;;;;;;4.53;2.47;;;;;;;;;;510122;29;1287;-91
2022/07/09 01:32:17;;;;;;;4.07;2.38;;;;;;;;;;508549;29;1189;-91
2022/07/09 01:32:33;;;;;;;4.10;2.30;;;;;;;;;;508197;29;1347;-92
2022/07/09 01:32:49;;;;;;;4.32;2.40;;;;;;;;;;508108;29;1304;-92
2022/07/09 01:33:05;;;;;;;5.17;2.57;;;;;;;;;;510135;29;1313;-93
2022/07/09 01:33:21;;;;;;;5.75;2.65;;;;;;;;;;508209;29;1262;-92
2022/07/09 01:33:36;;;;;;;5.53;2.63;;;;;;;;;;504155;29;1284;-92
2022/07/09 01:33:52;;;;;;;4.93;2.50;;;;;;;;;;506575;29;1237;-92
2022/07/09 01:34:07;;;;;;;3.70;2.53;;;;;;;;;;508499;29;1175;-92
2022/07/09 01:34:23;;;;;;;4.70;2.50;;;;;;;;;;508323;29;774;-92
2022/07/09 01:34:38;;;;;;;5.27;2.70;;;;;;;;;;508202;29;1139;-92
2022/07/09 01:34:54;;;;;;;4.88;2.78;;;;;;;;;;508430;29;1663;-92
2022/07/09 01:35:12;;;;;;;4.23;2.70;;;;;;;;;;508610;29;1162;-92
2022/07/09 01:35:28;;;;;;;3.50;2.60;;;;;;;;;;505912;29;2643;-91
2022/07/09 01:35:43;;;;;;;3.70;2.50;;;;;;;;;;506638;29;1910;-91
2022/07/09 01:35:59;;;;;;;4.20;2.42;;;;;;;;;;509106;29;1458;-91
2022/07/09 01:36:14;;;;;;;4.00;2.50;;;;;;;;;;507876;29;1305;-92
2022/07/09 01:36:29;;;;;;;4.05;2.60;;;;;;;;;;506430;29;1220;-92
2022/07/09 01:36:45;;;;;;;4.70;2.53;;;;;;;;;;506173;29;1356;-91
2022/07/09 01:37:00;;;;;;;4.82;2.40;;;;;;;;;;507982;29;1352;-92
2022/07/09 01:37:16;;;;;;;3.83;2.50;;;;;;;;;;508042;29;1251;-92
2022/07/09 01:37:31;;;;;;;3.93;2.60;;;;;;;;;;508261;29;1189;-92
2022/07/09 01:37:50;;;;;;;4.13;2.67;;;;;;;;;;506097;29;1300;-92
2022/07/09 01:38:06;;;;;;;4.30;2.60;;;;;;;;;;506163;29;1328;-91
2022/07/09 01:38:21;;;;;;;4.30;2.72;;;;;;;;;;506040;29;1375;-91
2022/07/09 01:38:37;;;;;;;4.73;2.90;;;;;;;;;;504267;29;1189;-92
2022/07/09 01:38:53;;;;;;;5.22;2.90;;;;;;;;;;504081;29;1351;-91